Main page
METAR-TAF:

METAR-TAF

Airports :

Riga International Airport

Riga, Latvia

latitude: 56-55N, longitude: 023-58E, elevation: 10 m

Current weather observation

The report was made 32 minutes ago, at 12:20 UTC
Wind 7 kt from the Southwest, varying between South and West
Temperature 17°C
Humidity 72%
Pressure 1017 hPa
Visibility 10 km or more
Overcast at a height of 2600 ft

METAR: EVRA 211220Z 23007KT 190V270 9999 OVC026 17/12 Q1017 NOSIG

Time: 15:52 (12:52 UTC)

Forecast

The report was made 1 hour and 52 minutes ago, at 11:00 UTC
Forecast valid from 21 at 12 UTC to 22 at 12 UTC
Wind 5 kt from the South/Southwest
Visibility 10 km or more
Broken clouds at a height of 2000 ft
Probability 40% :
Temporary
from 21 at 21 UTC to 22 at 06 UTC
Visibility: 3000 m
Broken clouds at a height of 200 ft
mist

TAF: EVRA 211100Z 2112/2212 21005KT 9999 BKN020 PROB40 TEMPO 2121/2206 3000 BR BKN002

Weather observations and forecasts of more than 4000 airports (METAR and TAF reports).

The available stations are represented by yellow and red dots on the map.

Hover mouse over dot to see the name of the station.

Then click to see weather observations and forecasts.

To change the map : click on the green buttons with a black cross to zoom in, on the green button with a dash to zoom out, or on the green arrows for adjacent maps.


METAR-TAF: